Time;durP1;ratioP1;P1;durP2;ratioP2;P2;SDS_P1;SDS_P2;PMS_P1;PMS_P2;Temp;Humidity;BMP_temperature;BMP_pressure;BME280_temperature;BME280_humidity;BME280_pressure;Samples;Min_cycle;Max_cycle;Signal;HPM_P1;HPM_P2
2023/09/18 00:00:11;;;;;;;23.65;16.38;;;;;;;;;;10315568;28;20491;-88
2023/09/18 00:05:14;;;;;;;23.27;16.88;;;;;;;;;;10314368;28;20415;-88
2023/09/18 00:10:16;;;;;;;22.73;16.07;;;;;;;;;;10311530;28;20434;-88
2023/09/18 00:15:20;;;;;;;25.85;16.83;;;;;;;;;;10310867;28;20423;-88
2023/09/18 00:20:26;;;;;;;21.17;15.70;;;;;;;;;;10308253;28;20477;-89
2023/09/18 00:25:30;;;;;;;21.77;16.00;;;;;;;;;;10310758;28;20408;-89
2023/09/18 00:30:34;;;;;;;19.88;16.00;;;;;;;;;;10303364;28;20414;-89
2023/09/18 00:35:36;;;;;;;24.03;16.63;;;;;;;;;;10306429;28;20858;-88
2023/09/18 00:40:39;;;;;;;22.98;16.73;;;;;;;;;;10305630;28;20402;-88
2023/09/18 00:45:45;;;;;;;22.35;15.48;;;;;;;;;;10321040;28;20410;-89
2023/09/18 00:50:47;;;;;;;20.52;15.52;;;;;;;;;;10321813;28;20482;-88
2023/09/18 00:55:51;;;;;;;21.98;16.40;;;;;;;;;;10322028;28;20426;-88
2023/09/18 01:00:55;;;;;;;21.33;15.15;;;;;;;;;;10313006;28;20778;-88
2023/09/18 01:05:57;;;;;;;21.67;15.93;;;;;;;;;;10312746;28;20965;-88
2023/09/18 01:11:07;;;;;;;20.95;15.15;;;;;;;;;;10310177;28;21041;-88
2023/09/18 01:16:18;;;;;;;22.00;15.70;;;;;;;;;;10301313;28;20493;-88
2023/09/18 01:21:21;;;;;;;22.27;16.67;;;;;;;;;;10310513;28;20410;-89
2023/09/18 01:26:25;;;;;;;20.67;16.02;;;;;;;;;;10305504;28;20413;-88
2023/09/18 01:31:27;;;;;;;21.67;16.45;;;;;;;;;;10305859;28;20414;-88
2023/09/18 01:36:30;;;;;;;23.00;17.50;;;;;;;;;;10311452;28;20495;-89
2023/09/18 01:41:34;;;;;;;22.52;17.13;;;;;;;;;;10305695;28;20402;-88
2023/09/18 01:46:37;;;;;;;24.15;16.70;;;;;;;;;;10306894;28;20416;-88
2023/09/18 01:51:39;;;;;;;21.05;16.20;;;;;;;;;;10304592;28;20501;-88
2023/09/18 01:56:43;;;;;;;25.50;17.23;;;;;;;;;;10312044;28;20479;-89
2023/09/18 02:01:45;;;;;;;23.98;16.95;;;;;;;;;;10314292;28;20475;-87
2023/09/18 02:06:50;;;;;;;24.37;17.57;;;;;;;;;;10298530;28;20414;-89
2023/09/18 02:11:53;;;;;;;25.35;17.42;;;;;;;;;;10292985;28;20810;-89
2023/09/18 02:16:56;;;;;;;26.70;17.13;;;;;;;;;;10307276;28;20428;-89
2023/09/18 02:22:00;;;;;;;24.20;17.52;;;;;;;;;;10318593;28;20954;-90
2023/09/18 02:27:07;;;;;;;24.45;18.08;;;;;;;;;;10314355;28;20431;-89
2023/09/18 02:32:10;;;;;;;24.25;17.45;;;;;;;;;;10344481;28;20417;-89
2023/09/18 02:37:12;;;;;;;24.70;18.58;;;;;;;;;;10316076;28;20477;-89
2023/09/18 02:42:15;;;;;;;25.42;18.88;;;;;;;;;;10306005;28;20411;-89
2023/09/18 02:47:18;;;;;;;24.75;18.13;;;;;;;;;;10327526;28;20413;-89
2023/09/18 02:52:20;;;;;;;27.67;18.60;;;;;;;;;;10326569;28;20403;-89
2023/09/18 02:57:24;;;;;;;27.77;20.00;;;;;;;;;;10331346;28;20434;-89
2023/09/18 03:02:26;;;;;;;25.83;18.45;;;;;;;;;;10321364;28;20416;-89
2023/09/18 03:07:29;;;;;;;25.67;17.83;;;;;;;;;;10309645;28;20481;-90
2023/09/18 03:12:33;;;;;;;26.58;18.88;;;;;;;;;;10323839;28;20414;-89
2023/09/18 03:17:35;;;;;;;27.08;18.88;;;;;;;;;;10315286;28;20426;-88
2023/09/18 03:22:38;;;;;;;26.65;18.85;;;;;;;;;;10297407;28;20411;-89
2023/09/18 03:27:41;;;;;;;26.47;17.87;;;;;;;;;;10319357;28;20444;-89
2023/09/18 03:32:44;;;;;;;25.52;17.67;;;;;;;;;;10327362;28;20414;-89
2023/09/18 03:37:46;;;;;;;26.27;17.30;;;;;;;;;;10320490;28;20481;-89
2023/09/18 03:42:50;;;;;;;26.57;17.80;;;;;;;;;;10311992;28;20474;-89
2023/09/18 03:47:53;;;;;;;23.23;16.90;;;;;;;;;;10314433;28;20426;-89
2023/09/18 03:52:55;;;;;;;23.53;16.73;;;;;;;;;;10316061;28;20497;-89
2023/09/18 03:58:00;;;;;;;24.17;17.25;;;;;;;;;;10343030;28;21030;-89
2023/09/18 04:03:02;;;;;;;23.65;17.00;;;;;;;;;;10329968;28;20445;-89
2023/09/18 04:08:05;;;;;;;23.27;16.40;;;;;;;;;;10314589;28;20413;-89
2023/09/18 04:13:09;;;;;;;21.95;16.02;;;;;;;;;;10321626;28;20446;-89
2023/09/18 04:18:11;;;;;;;21.60;15.40;;;;;;;;;;10325963;28;20459;-89
2023/09/18 04:23:22;;;;;;;18.90;14.83;;;;;;;;;;10332477;28;20971;-89
2023/09/18 04:28:26;;;;;;;20.70;14.50;;;;;;;;;;10320812;28;20897;-89
2023/09/18 04:33:29;;;;;;;19.37;14.00;;;;;;;;;;10329851;28;20420;-89
2023/09/18 04:38:31;;;;;;;18.70;13.83;;;;;;;;;;10319042;28;20529;-89
2023/09/18 04:43:35;;;;;;;20.95;15.00;;;;;;;;;;10314470;28;20415;-89
2023/09/18 04:48:38;;;;;;;18.08;13.90;;;;;;;;;;10308774;28;20469;-90
2023/09/18 04:53:40;;;;;;;22.33;15.23;;;;;;;;;;10319452;28;20403;-89
2023/09/18 04:58:44;;;;;;;24.13;15.23;;;;;;;;;;10307935;28;20526;-88
2023/09/18 05:03:48;;;;;;;22.75;14.80;;;;;;;;;;10314367;28;20418;-89
2023/09/18 05:08:51;;;;;;;22.70;15.27;;;;;;;;;;10329279;28;21092;-90
2023/09/18 05:13:55;;;;;;;23.98;16.48;;;;;;;;;;10302531;28;20421;-89
2023/09/18 05:18:57;;;;;;;23.83;15.85;;;;;;;;;;10319852;28;20459;-90
2023/09/18 05:23:59;;;;;;;22.03;15.20;;;;;;;;;;10326739;28;20482;-90
2023/09/18 05:29:03;;;;;;;22.90;15.68;;;;;;;;;;10315494;28;20414;-90
2023/09/18 05:34:06;;;;;;;24.75;16.05;;;;;;;;;;10307106;28;20421;-88
2023/09/18 05:39:09;;;;;;;24.03;15.63;;;;;;;;;;10304433;28;20410;-89
2023/09/18 05:44:14;;;;;;;24.63;15.15;;;;;;;;;;10307478;28;20412;-91
2023/09/18 05:49:16;;;;;;;21.67;14.50;;;;;;;;;;10304229;28;20418;-89
2023/09/18 05:54:19;;;;;;;20.35;14.13;;;;;;;;;;10319215;28;20493;-88
2023/09/18 05:59:22;;;;;;;22.90;14.70;;;;;;;;;;10305380;28;20452;-90
2023/09/18 06:04:25;;;;;;;20.00;14.60;;;;;;;;;;10297841;28;20419;-88
2023/09/18 06:09:27;;;;;;;21.80;14.63;;;;;;;;;;10308201;28;20410;-90
2023/09/18 06:14:31;;;;;;;20.30;14.03;;;;;;;;;;10297351;28;20465;-89
2023/09/18 06:19:34;;;;;;;20.17;14.32;;;;;;;;;;10301916;28;20423;-89
2023/09/18 06:24:37;;;;;;;19.52;13.45;;;;;;;;;;10303364;28;20399;-89
2023/09/18 06:29:42;;;;;;;19.87;13.97;;;;;;;;;;10302362;28;20406;-88
2023/09/18 06:34:47;;;;;;;20.60;13.73;;;;;;;;;;10309149;28;20425;-89
2023/09/18 06:39:49;;;;;;;23.30;14.15;;;;;;;;;;10305120;28;20548;-88
2023/09/18 06:44:53;;;;;;;20.33;14.00;;;;;;;;;;10308518;28;20481;-89
2023/09/18 06:49:55;;;;;;;17.80;12.70;;;;;;;;;;10303887;28;20524;-89
2023/09/18 06:54:58;;;;;;;18.98;13.48;;;;;;;;;;10311805;28;20566;-88
2023/09/18 07:00:04;;;;;;;20.45;13.18;;;;;;;;;;10312673;28;20417;-89
2023/09/18 07:05:07;;;;;;;19.43;13.30;;;;;;;;;;10305309;28;20408;-89
2023/09/18 07:10:09;;;;;;;20.63;13.73;;;;;;;;;;10305124;28;20413;-89
2023/09/18 07:15:13;;;;;;;18.92;13.50;;;;;;;;;;10316767;28;20873;-88
2023/09/18 07:20:16;;;;;;;20.55;13.75;;;;;;;;;;10315515;28;20511;-88
2023/09/18 07:25:19;;;;;;;18.15;12.75;;;;;;;;;;10313435;28;20405;-89
2023/09/18 07:30:26;;;;;;;18.85;13.23;;;;;;;;;;10311978;28;20927;-89
2023/09/18 07:35:29;;;;;;;20.35;12.35;;;;;;;;;;10312550;28;20424;-89
2023/09/18 07:40:31;;;;;;;18.47;12.37;;;;;;;;;;10317730;28;20408;-89
2023/09/18 07:45:35;;;;;;;17.73;11.60;;;;;;;;;;10307654;28;20458;-89
2023/09/18 07:50:37;;;;;;;18.00;12.35;;;;;;;;;;10326602;28;20901;-89
2023/09/18 07:55:39;;;;;;;16.80;12.45;;;;;;;;;;10325387;28;20428;-89
2023/09/18 08:00:43;;;;;;;18.90;12.68;;;;;;;;;;10317671;28;20503;-89
2023/09/18 08:05:47;;;;;;;18.77;11.93;;;;;;;;;;10305558;28;20419;-88
2023/09/18 08:10:50;;;;;;;18.15;12.48;;;;;;;;;;10322753;28;20456;-89
2023/09/18 08:15:53;;;;;;;21.97;13.70;;;;;;;;;;10311259;28;20422;-89
2023/09/18 08:20:57;;;;;;;20.17;13.40;;;;;;;;;;10309745;28;20903;-88
2023/09/18 08:26:01;;;;;;;20.05;13.60;;;;;;;;;;10313540;28;20952;-89
2023/09/18 08:31:04;;;;;;;21.77;13.80;;;;;;;;;;10313321;28;20405;-89
2023/09/18 08:36:07;;;;;;;20.92;13.30;;;;;;;;;;10315802;28;20501;-89
2023/09/18 08:41:09;;;;;;;23.30;13.57;;;;;;;;;;10305982;28;20465;-88
2023/09/18 08:46:13;;;;;;;21.38;13.68;;;;;;;;;;10309744;28;20417;-88
2023/09/18 08:51:17;;;;;;;17.63;12.65;;;;;;;;;;10314972;28;20414;-89
2023/09/18 08:56:19;;;;;;;14.63;10.40;;;;;;;;;;10305757;28;20428;-89
2023/09/18 09:01:23;;;;;;;15.38;10.30;;;;;;;;;;10314392;28;20418;-88
2023/09/18 09:06:26;;;;;;;17.93;10.50;;;;;;;;;;10317446;28;20469;-89
2023/09/18 09:11:28;;;;;;;13.63;10.20;;;;;;;;;;10303112;28;20418;-86
2023/09/18 09:16:32;;;;;;;17.10;11.60;;;;;;;;;;10305792;28;20503;-88
2023/09/18 09:21:41;;;;;;;16.05;10.10;;;;;;;;;;10323134;28;20501;-89
2023/09/18 09:26:44;;;;;;;13.40;9.40;;;;;;;;;;10306137;28;20485;-88
2023/09/18 09:31:48;;;;;;;13.27;9.87;;;;;;;;;;10313375;28;20406;-89
2023/09/18 09:36:54;;;;;;;13.60;9.87;;;;;;;;;;10305558;28;20430;-88
2023/09/18 09:41:56;;;;;;;15.52;9.82;;;;;;;;;;10322733;28;20916;-87
2023/09/18 09:47:01;;;;;;;13.60;9.60;;;;;;;;;;10304978;28;20410;-87
2023/09/18 09:52:05;;;;;;;16.70;10.45;;;;;;;;;;10310637;28;20442;-87
2023/09/18 09:57:08;;;;;;;16.50;10.50;;;;;;;;;;10284032;28;20436;-87
2023/09/18 10:02:14;;;;;;;15.00;11.10;;;;;;;;;;10315047;28;20421;-87
2023/09/18 10:07:18;;;;;;;14.70;8.93;;;;;;;;;;10298117;28;20415;-89
2023/09/18 10:12:22;;;;;;;13.98;9.95;;;;;;;;;;10311032;28;20534;-88
2023/09/18 10:17:26;;;;;;;15.73;10.00;;;;;;;;;;10308555;28;20458;-88
2023/09/18 10:22:37;;;;;;;14.40;10.00;;;;;;;;;;10311552;28;20419;-87
2023/09/18 10:27:41;;;;;;;12.35;9.63;;;;;;;;;;10299771;28;20520;-89
2023/09/18 10:32:48;;;;;;;13.98;8.82;;;;;;;;;;10313402;28;20411;-89
2023/09/18 10:37:51;;;;;;;10.82;8.20;;;;;;;;;;10305379;28;21072;-88
2023/09/18 10:42:58;;;;;;;10.30;7.77;;;;;;;;;;10302381;28;20467;-89
2023/09/18 10:48:03;;;;;;;12.05;8.02;;;;;;;;;;10310704;28;20420;-89
2023/09/18 10:53:05;;;;;;;13.80;8.77;;;;;;;;;;10326515;28;20413;-89
2023/09/18 10:58:07;;;;;;;13.90;8.68;;;;;;;;;;10311065;28;20428;-89
2023/09/18 11:03:13;;;;;;;11.85;8.25;;;;;;;;;;10319526;28;20483;-88
2023/09/18 11:08:30;;;;;;;13.02;9.27;;;;;;;;;;10314425;28;20471;-88
2023/09/18 11:13:36;;;;;;;13.25;8.20;;;;;;;;;;10317621;28;20972;-89
2023/09/18 11:18:39;;;;;;;12.18;8.40;;;;;;;;;;10314547;28;20780;-88
2023/09/18 11:23:43;;;;;;;14.27;9.35;;;;;;;;;;10311462;28;20437;-90
2023/09/18 11:28:50;;;;;;;12.30;8.80;;;;;;;;;;10318142;28;20943;-89
2023/09/18 11:33:54;;;;;;;13.25;9.20;;;;;;;;;;10306281;28;20505;-89
2023/09/18 11:38:57;;;;;;;12.70;9.90;;;;;;;;;;10310200;28;20428;-89
2023/09/18 11:44:33;;;;;;;11.32;9.43;;;;;;;;;;10312642;28;20489;-89
2023/09/18 11:49:37;;;;;;;14.57;9.60;;;;;;;;;;10188110;29;20441;-89
2023/09/18 11:54:41;;;;;;;13.97;9.53;;;;;;;;;;10279523;28;20454;-88
2023/09/18 11:59:46;;;;;;;16.42;10.27;;;;;;;;;;10314772;28;20423;-88
2023/09/18 12:04:49;;;;;;;14.68;9.73;;;;;;;;;;10312444;28;20459;-89
2023/09/18 12:09:54;;;;;;;14.43;9.85;;;;;;;;;;10297937;28;20456;-88
2023/09/18 12:14:56;;;;;;;11.27;9.73;;;;;;;;;;10304888;28;20832;-88
2023/09/18 12:20:00;;;;;;;13.52;9.70;;;;;;;;;;10312965;28;20428;-89
2023/09/18 12:25:12;;;;;;;14.33;9.70;;;;;;;;;;10305481;28;21159;-89
2023/09/18 12:30:20;;;;;;;17.50;10.60;;;;;;;;;;10298619;28;20898;-89
2023/09/18 12:35:29;;;;;;;13.43;9.13;;;;;;;;;;10307243;28;20453;-89
2023/09/18 12:40:33;;;;;;;13.25;9.43;;;;;;;;;;10314356;28;20441;-88
2023/09/18 12:45:36;;;;;;;12.70;8.70;;;;;;;;;;10314456;28;20444;-89
2023/09/18 12:50:40;;;;;;;14.13;9.50;;;;;;;;;;10330741;28;20939;-89
2023/09/18 12:55:43;;;;;;;15.00;9.77;;;;;;;;;;10319866;28;20405;-89
2023/09/18 13:00:46;;;;;;;11.03;8.87;;;;;;;;;;10324750;28;20491;-89
2023/09/18 13:05:54;;;;;;;11.50;8.27;;;;;;;;;;10323531;28;20413;-89
2023/09/18 13:10:57;;;;;;;12.00;8.15;;;;;;;;;;10308642;28;20767;-89
2023/09/18 13:16:00;;;;;;;11.50;8.38;;;;;;;;;;10324664;28;20515;-89
2023/09/18 13:21:12;;;;;;;11.50;8.73;;;;;;;;;;10320641;28;20481;-89
2023/09/18 13:26:14;;;;;;;13.05;9.38;;;;;;;;;;10320192;28;20408;-89
2023/09/18 13:31:18;;;;;;;14.55;10.55;;;;;;;;;;10312317;28;21374;-89
2023/09/18 13:36:22;;;;;;;14.93;11.10;;;;;;;;;;10305346;28;20848;-89
2023/09/18 13:41:24;;;;;;;14.88;10.77;;;;;;;;;;10306783;28;20736;-89
2023/09/18 13:46:26;;;;;;;14.60;10.75;;;;;;;;;;10304992;28;20950;-89
2023/09/18 13:51:31;;;;;;;15.48;11.85;;;;;;;;;;10308673;28;20453;-87
2023/09/18 13:56:33;;;;;;;14.38;11.20;;;;;;;;;;10299438;28;20962;-89
2023/09/18 14:01:36;;;;;;;14.82;10.45;;;;;;;;;;10307667;28;20907;-89
2023/09/18 14:06:39;;;;;;;14.40;10.85;;;;;;;;;;10295751;28;20476;-89
2023/09/18 14:11:42;;;;;;;13.90;9.80;;;;;;;;;;10309237;28;20413;-89
2023/09/18 14:16:44;;;;;;;12.97;9.83;;;;;;;;;;10308779;28;20429;-89
2023/09/18 14:21:49;;;;;;;12.05;9.57;;;;;;;;;;10318670;28;20511;-90
2023/09/18 14:26:51;;;;;;;11.23;8.88;;;;;;;;;;10329432;28;20406;-90
2023/09/18 14:31:54;;;;;;;12.00;8.83;;;;;;;;;;10331688;28;20976;-88
2023/09/18 14:36:58;;;;;;;12.18;8.63;;;;;;;;;;10315995;28;20454;-89
2023/09/18 14:42:00;;;;;;;12.70;9.43;;;;;;;;;;10322330;28;20406;-90
2023/09/18 14:47:03;;;;;;;11.93;8.55;;;;;;;;;;10316551;28;20510;-89
2023/09/18 14:52:07;;;;;;;12.35;7.38;;;;;;;;;;10321738;28;20421;-90
2023/09/18 14:57:10;;;;;;;9.37;6.73;;;;;;;;;;10319303;28;20750;-90
2023/09/18 15:02:12;;;;;;;7.65;6.07;;;;;;;;;;10321384;28;21106;-90
2023/09/18 15:07:16;;;;;;;8.98;6.03;;;;;;;;;;10320329;28;20470;-90
2023/09/18 15:12:19;;;;;;;10.25;6.53;;;;;;;;;;10310536;28;20918;-89
2023/09/18 15:17:21;;;;;;;11.10;6.82;;;;;;;;;;10319066;28;20541;-90
2023/09/18 15:22:25;;;;;;;9.57;6.60;;;;;;;;;;10315482;28;20418;-89
2023/09/18 15:27:27;;;;;;;10.60;7.28;;;;;;;;;;10315637;28;20414;-89
2023/09/18 15:32:30;;;;;;;9.20;6.68;;;;;;;;;;10330492;28;21304;-90
2023/09/18 15:37:34;;;;;;;9.23;7.40;;;;;;;;;;10317094;28;20460;-90
2023/09/18 15:42:36;;;;;;;9.90;6.82;;;;;;;;;;10305151;28;20411;-90
2023/09/18 15:47:38;;;;;;;11.10;7.38;;;;;;;;;;10311081;28;20475;-90
2023/09/18 15:52:42;;;;;;;12.90;7.47;;;;;;;;;;10304029;28;20515;-90
2023/09/18 15:57:44;;;;;;;11.80;7.53;;;;;;;;;;10300340;28;20495;-91
2023/09/18 16:02:48;;;;;;;12.25;7.82;;;;;;;;;;10307599;28;20869;-87
2023/09/18 16:07:57;;;;;;;10.23;7.63;;;;;;;;;;10302864;28;20422;-88
2023/09/18 16:13:00;;;;;;;12.90;8.03;;;;;;;;;;10289727;28;20407;-89
2023/09/18 16:18:03;;;;;;;11.30;7.78;;;;;;;;;;10310680;28;20420;-88
2023/09/18 16:23:07;;;;;;;11.23;7.53;;;;;;;;;;10302618;28;20470;-88
2023/09/18 16:28:10;;;;;;;11.02;8.00;;;;;;;;;;10305723;28;20410;-88
2023/09/18 16:33:12;;;;;;;10.57;7.53;;;;;;;;;;10304559;28;20417;-88
2023/09/18 16:38:16;;;;;;;11.77;8.02;;;;;;;;;;10297501;28;20422;-88
2023/09/18 16:43:21;;;;;;;10.55;7.70;;;;;;;;;;10309943;28;20419;-88
2023/09/18 16:48:23;;;;;;;10.97;8.20;;;;;;;;;;10299480;28;20473;-88
2023/09/18 16:53:27;;;;;;;13.50;8.30;;;;;;;;;;10298881;28;20661;-87
2023/09/18 16:58:30;;;;;;;11.10;8.57;;;;;;;;;;10304624;28;21451;-88
2023/09/18 17:03:32;;;;;;;12.90;8.63;;;;;;;;;;10307636;28;20420;-88
2023/09/18 17:08:36;;;;;;;12.43;8.88;;;;;;;;;;10307552;28;20552;-89
2023/09/18 17:13:38;;;;;;;11.60;8.18;;;;;;;;;;10303689;28;20450;-86
2023/09/18 17:18:42;;;;;;;17.67;8.67;;;;;;;;;;10303683;28;21546;-85
2023/09/18 17:23:46;;;;;;;12.63;8.13;;;;;;;;;;10305360;28;20462;-90
2023/09/18 17:28:48;;;;;;;11.13;7.55;;;;;;;;;;10302242;28;20448;-89
2023/09/18 17:33:51;;;;;;;13.70;8.80;;;;;;;;;;10298304;28;20493;-90
2023/09/18 17:38:55;;;;;;;12.75;9.20;;;;;;;;;;10296378;28;20481;-90
2023/09/18 17:43:57;;;;;;;13.95;9.70;;;;;;;;;;10314036;28;20421;-89
2023/09/18 17:48:59;;;;;;;13.43;9.33;;;;;;;;;;10325547;28;20432;-91
2023/09/18 17:54:05;;;;;;;13.25;9.43;;;;;;;;;;10320311;28;20487;-89
2023/09/18 17:59:08;;;;;;;13.27;9.80;;;;;;;;;;10308482;28;20464;-89
2023/09/18 18:04:10;;;;;;;15.07;10.73;;;;;;;;;;10314905;28;20952;-88
2023/09/18 18:09:14;;;;;;;14.52;9.80;;;;;;;;;;10302483;28;20485;-89
2023/09/18 18:14:18;;;;;;;13.60;10.33;;;;;;;;;;10304203;28;20512;-88
2023/09/18 18:19:20;;;;;;;15.95;10.63;;;;;;;;;;10304867;28;20448;-87
2023/09/18 18:24:24;;;;;;;17.67;11.15;;;;;;;;;;10311992;28;20413;-87
2023/09/18 18:29:26;;;;;;;21.58;12.77;;;;;;;;;;10314467;28;21203;-88
2023/09/18 18:34:29;;;;;;;18.07;11.90;;;;;;;;;;10323617;28;20497;-86
2023/09/18 18:39:33;;;;;;;14.85;9.60;;;;;;;;;;10311776;28;20458;-87
2023/09/18 18:44:35;;;;;;;9.77;6.80;;;;;;;;;;10303538;28;20430;-86
2023/09/18 18:49:38;;;;;;;10.95;7.65;;;;;;;;;;10290897;28;20429;-87
2023/09/18 18:54:42;;;;;;;13.40;7.70;;;;;;;;;;10294074;28;20422;-86
2023/09/18 18:59:45;;;;;;;8.63;6.35;;;;;;;;;;10306822;28;20516;-88
2023/09/18 19:04:47;;;;;;;5.60;3.85;;;;;;;;;;10308214;28;20819;-88
2023/09/18 19:09:51;;;;;;;7.77;4.90;;;;;;;;;;10314277;28;20658;-87
2023/09/18 19:14:54;;;;;;;8.45;5.22;;;;;;;;;;10309977;28;20449;-88
2023/09/18 19:19:57;;;;;;;10.77;5.75;;;;;;;;;;10314847;28;20464;-88
2023/09/18 19:25:00;;;;;;;9.55;6.07;;;;;;;;;;10314138;28;20556;-87
2023/09/18 19:30:06;;;;;;;9.93;5.88;;;;;;;;;;10290974;28;20463;-88
2023/09/18 19:35:10;;;;;;;8.07;6.30;;;;;;;;;;10300841;28;20408;-88
2023/09/18 19:40:14;;;;;;;11.70;6.80;;;;;;;;;;10311186;28;20514;-87
2023/09/18 19:45:17;;;;;;;10.55;7.30;;;;;;;;;;10305250;28;20430;-87
2023/09/18 19:50:19;;;;;;;22.60;10.00;;;;;;;;;;10309791;28;20458;-87
2023/09/18 19:55:24;;;;;;;13.87;9.13;;;;;;;;;;10322434;28;20421;-88
2023/09/18 20:00:26;;;;;;;13.47;9.10;;;;;;;;;;10323676;28;20517;-89
2023/09/18 20:05:29;;;;;;;11.10;7.83;;;;;;;;;;10295568;28;20417;-88
2023/09/18 20:10:33;;;;;;;7.70;5.40;;;;;;;;;;10306437;28;20454;-89
2023/09/18 20:15:36;;;;;;;9.07;5.55;;;;;;;;;;10310648;28;20479;-88
2023/09/18 20:20:38;;;;;;;10.47;5.70;;;;;;;;;;10314214;28;21019;-88
2023/09/18 20:25:42;;;;;;;11.50;5.85;;;;;;;;;;10304725;28;20493;-87
2023/09/18 20:30:52;;;;;;;8.57;5.47;;;;;;;;;;10306222;28;20430;-88
2023/09/18 20:35:58;;;;;;;7.90;5.83;;;;;;;;;;10317928;28;20421;-89
2023/09/18 20:41:02;;;;;;;10.73;6.20;;;;;;;;;;10298703;28;20988;-88
2023/09/18 20:46:05;;;;;;;10.37;5.50;;;;;;;;;;10297691;28;20416;-88
2023/09/18 20:51:08;;;;;;;8.48;5.18;;;;;;;;;;10309848;28;20444;-88
2023/09/18 20:56:12;;;;;;;8.53;4.57;;;;;;;;;;10321456;28;20503;-88
2023/09/18 21:01:14;;;;;;;7.43;4.65;;;;;;;;;;10314429;28;20425;-88
2023/09/18 21:06:17;;;;;;;8.73;4.07;;;;;;;;;;10309958;28;20453;-89
2023/09/18 21:11:21;;;;;;;7.23;3.80;;;;;;;;;;10311058;28;20418;-88
2023/09/18 21:16:23;;;;;;;7.47;3.80;;;;;;;;;;10326294;28;20448;-87
2023/09/18 21:21:25;;;;;;;7.73;3.93;;;;;;;;;;10319484;28;20430;-89
2023/09/18 21:26:29;;;;;;;7.85;3.90;;;;;;;;;;10307707;28;20459;-88
2023/09/18 21:31:32;;;;;;;7.90;3.88;;;;;;;;;;10306685;28;20478;-89
2023/09/18 21:36:34;;;;;;;8.17;3.90;;;;;;;;;;10297546;28;20436;-89
2023/09/18 21:41:40;;;;;;;9.35;4.03;;;;;;;;;;10303862;28;20430;-88
2023/09/18 21:46:42;;;;;;;8.07;4.00;;;;;;;;;;10296989;28;20791;-89
2023/09/18 21:51:45;;;;;;;7.13;3.88;;;;;;;;;;10317900;28;20460;-89
2023/09/18 21:56:48;;;;;;;6.97;4.10;;;;;;;;;;10301741;28;20824;-87
2023/09/18 22:01:54;;;;;;;7.57;4.13;;;;;;;;;;10311102;28;20429;-87
2023/09/18 22:06:56;;;;;;;7.32;4.20;;;;;;;;;;10325872;28;20405;-87
2023/09/18 22:12:02;;;;;;;6.47;4.28;;;;;;;;;;10319634;28;20777;-89
2023/09/18 22:17:05;;;;;;;7.15;3.88;;;;;;;;;;10327547;28;20479;-89
2023/09/18 22:22:07;;;;;;;7.80;3.63;;;;;;;;;;10320468;28;20434;-89
2023/09/18 22:27:16;;;;;;;8.60;3.90;;;;;;;;;;10322789;28;20440;-89
2023/09/18 22:32:19;;;;;;;9.90;4.50;;;;;;;;;;10317290;28;20405;-89
2023/09/18 22:37:22;;;;;;;8.30;4.20;;;;;;;;;;10312198;28;20449;-89
2023/09/18 22:42:24;;;;;;;8.73;3.92;;;;;;;;;;10324721;28;20511;-89
2023/09/18 22:48:04;;;;;;;6.22;3.80;;;;;;;;;;10325943;28;20938;-89
2023/09/18 22:53:07;;;;;;;6.90;4.30;;;;;;;;;;10323272;28;20410;-89
2023/09/18 22:58:13;;;;;;;8.60;4.38;;;;;;;;;;10320825;28;20412;-88
2023/09/18 23:03:16;;;;;;;8.88;4.72;;;;;;;;;;10311912;28;20490;-88
2023/09/18 23:08:18;;;;;;;8.87;4.50;;;;;;;;;;10333049;28;20489;-88
2023/09/18 23:13:24;;;;;;;7.13;4.20;;;;;;;;;;10326655;28;20401;-88
2023/09/18 23:18:27;;;;;;;7.43;4.15;;;;;;;;;;10347840;23;20424;-84
2023/09/18 23:23:30;;;;;;;8.85;4.75;;;;;;;;;;10345811;28;20486;-86
2023/09/18 23:28:34;;;;;;;6.47;4.50;;;;;;;;;;10340473;28;21013;-86
2023/09/18 23:33:36;;;;;;;6.35;4.30;;;;;;;;;;10344560;28;20468;-86
2023/09/18 23:38:40;;;;;;;9.20;4.82;;;;;;;;;;10342481;28;20411;-85
2023/09/18 23:43:44;;;;;;;8.27;4.80;;;;;;;;;;10344545;28;20771;-85
2023/09/18 23:48:47;;;;;;;8.68;4.47;;;;;;;;;;10345897;28;20489;-85
2023/09/18 23:53:49;;;;;;;9.32;5.40;;;;;;;;;;10339487;28;20425;-85
2023/09/18 23:58:54;;;;;;;8.88;4.40;;;;;;;;;;10344239;28;20474;-85
